Terminal Aerodrome Forecast
Issued by NWS

Home | Current Version | Previous Version | Text Only | Print | Product List | Glossary On
Versions: 1 2 3 4 5 6 7 8 9 10 11 12 13 14 15 16 17 18 19 20 21 22 23 24 25 26 27 28 29
763
FTUS43 KGRR 221740
TAFMKG
TAF
KMKG 221740Z 2218/2318 20012G18KT 3/4SM BR OVC002
     FM221900 20014G19KT 1SM BR OVC004
     FM222000 19014G22KT 4SM BR BKN015
     FM222300 21012G19KT 2SM BR OVC009
     FM230500 21012G18KT 1/2SM FG OVC007
     FM230900 25008KT 1/2SM FG OVC009
     FM231200 36008KT 4SM BR OVC007=

USA.gov is the U.S. government's official web portal to all federal, state and local government web resources and services.